Aérodrome :
LOGIN :

S'inscrire | Disclaimer

   EN    FR    IT 

 










Légende :    VFR   VFR Marginal   IFR   IFR Intensif   IFR Très Intensif
Visi : 
Plafond : 
>= 8 km
>= 3000ft
5 à 8 km
1000 à 3000 ft
1500m à 5 km
500 à 1000 ft
800 à 1500m
200 à 500 ft
< 800m
< 200 ft
Symboles :   Orages  Brouillard  Fortes neiges  Fortes précipitations  Vent > 20 kt
SIGMETs :   Divers  Orages  Givrage  Turbulence  Onde Orograph.  Cendres Volcan.







- Altitude de l'aérodrome : 1674 ft
- Code IATA : BRN


LSZB - Bern Belp

DERNIER METAR :
  • 151120Z 22009KT 170V270 9999 FEW060 BKN090 06/M02 Q1001 TEMPO SHRASN

METARs EXPIRÉS :
  • 151050Z VRB03KT 9999 BKN050 06/01 Q1001 TEMPO SHRASN
  • 151020Z AUTO 15004KT 100V190 9999 FEW044 OVC050 04/M00 Q1002
  • 150950Z VRB02KT 9999 BKN050 04/M01 Q1001 NOSIG
  • 150920Z 22006KT 180V250 9999 BKN050 03/M02 Q1001 NOSIG
  • 150850Z 08004KT 360V100 9999 SCT100 03/M02 Q1001 NOSIG

TAF TAF LSZB
Valide du 15 à 12h jusqu'au 15 à 21h UTC


151125Z 1512/1521 23007KT 9999 FEW015 BKN050
PROB30
TEMPO 1512/1521 2500 SHSN BKN013
ATIS : +41 22 417 40 76
Pas de NOTAMs connus pour ce terrain.



MET'MAP, la Météo Aéronautique d'un coup d'oeil ! - Copyright ORBIFLY Décembre 2007 - Disclaimer

ORBIFLY MET'MAP TEAM :

Programmation & Développement : Alexandra Zaïnal
Conception & Développement : Baudouin d'Aumeries
Co-Programmation & Développement : Marc-Olivier Méhu
Soutien technique & logistique : Manuel Goepfert

Contact : metmap@orbifly.com




SOURCES & CREDITS :

   NOAA